Terminal Aerodrome Forecast
Issued by NWS Bismarck, ND

Home | Current Version | Previous Version | Graphics & Text | Print | Product List | Glossary On
Versions: 1 2 3 4 5 6 7 8 9 10 11 12 13 14 15 16 17 18 19 20 21 22 23 24
698
FTUS43 KBIS 200811 AAB
TAFBIS
TAF AMD
KBIS 200811Z 2008/2106 34004KT P6SM -RA SCT050 OVC090
     FM200900 30009KT P6SM VCSH BKN080 OVC110
     FM201100 29009KT 5SM BR VCSH BKN020 BKN070 OVC100
     FM201600 29007KT P6SM SCT120
     FM201900 28013KT P6SM SKC
     FM210100 22004KT P6SM SKC=

USA.gov is the U.S. government's official web portal to all federal, state and local government web resources and services.